sensor_id;sensor_type;location;lat;lon;timestamp;P1;durP1;ratioP1;P2;durP2;ratioP2
5805;SDS011;2929;50.810;8.342;2023-12-20T00:00:34;0.90;;;0.90;;
5805;SDS011;2929;50.810;8.342;2023-12-20T00:03:04;1.23;;;1.13;;
5805;SDS011;2929;50.810;8.342;2023-12-20T00:05:31;1.50;;;1.40;;
5805;SDS011;2929;50.810;8.342;2023-12-20T00:07:58;4.63;;;1.20;;
5805;SDS011;2929;50.810;8.342;2023-12-20T00:10:25;2.50;;;1.47;;
5805;SDS011;2929;50.810;8.342;2023-12-20T00:12:52;1.20;;;1.07;;
5805;SDS011;2929;50.810;8.342;2023-12-20T00:15:20;2.00;;;1.60;;
5805;SDS011;2929;50.810;8.342;2023-12-20T00:17:47;2.40;;;1.50;;
5805;SDS011;2929;50.810;8.342;2023-12-20T00:20:15;1.77;;;1.53;;
5805;SDS011;2929;50.810;8.342;2023-12-20T00:22:42;2.17;;;1.83;;
5805;SDS011;2929;50.810;8.342;2023-12-20T00:25:09;1.40;;;1.30;;
5805;SDS011;2929;50.810;8.342;2023-12-20T00:27:36;2.63;;;1.80;;
5805;SDS011;2929;50.810;8.342;2023-12-20T00:30:04;3.67;;;2.83;;
5805;SDS011;2929;50.810;8.342;2023-12-20T00:32:32;1.80;;;1.70;;
5805;SDS011;2929;50.810;8.342;2023-12-20T00:35:00;1.80;;;1.70;;
5805;SDS011;2929;50.810;8.342;2023-12-20T00:37:28;1.57;;;1.47;;
5805;SDS011;2929;50.810;8.342;2023-12-20T00:39:56;2.03;;;1.60;;
5805;SDS011;2929;50.810;8.342;2023-12-20T00:42:22;2.20;;;1.60;;
5805;SDS011;2929;50.810;8.342;2023-12-20T00:44:49;3.20;;;1.37;;
5805;SDS011;2929;50.810;8.342;2023-12-20T00:47:16;1.67;;;1.57;;
5805;SDS011;2929;50.810;8.342;2023-12-20T00:49:44;2.00;;;1.80;;
5805;SDS011;2929;50.810;8.342;2023-12-20T00:52:11;1.80;;;1.70;;
5805;SDS011;2929;50.810;8.342;2023-12-20T00:54:39;1.50;;;1.40;;
5805;SDS011;2929;50.810;8.342;2023-12-20T00:57:06;1.47;;;1.37;;
5805;SDS011;2929;50.810;8.342;2023-12-20T00:59:33;2.13;;;1.77;;
5805;SDS011;2929;50.810;8.342;2023-12-20T01:02:00;1.50;;;1.40;;
5805;SDS011;2929;50.810;8.342;2023-12-20T01:04:27;1.33;;;1.30;;
5805;SDS011;2929;50.810;8.342;2023-12-20T01:06:54;1.83;;;1.40;;
5805;SDS011;2929;50.810;8.342;2023-12-20T01:09:24;2.13;;;1.80;;
5805;SDS011;2929;50.810;8.342;2023-12-20T01:11:53;1.93;;;1.40;;
5805;SDS011;2929;50.810;8.342;2023-12-20T01:14:21;1.57;;;1.47;;
5805;SDS011;2929;50.810;8.342;2023-12-20T01:16:48;2.10;;;1.13;;
5805;SDS011;2929;50.810;8.342;2023-12-20T01:19:15;1.40;;;1.30;;
5805;SDS011;2929;50.810;8.342;2023-12-20T01:21:42;2.47;;;1.63;;
5805;SDS011;2929;50.810;8.342;2023-12-20T01:24:09;3.73;;;2.00;;
5805;SDS011;2929;50.810;8.342;2023-12-20T01:26:36;1.90;;;1.80;;
5805;SDS011;2929;50.810;8.342;2023-12-20T01:29:04;3.93;;;3.20;;
5805;SDS011;2929;50.810;8.342;2023-12-20T01:31:31;2.23;;;2.03;;
5805;SDS011;2929;50.810;8.342;2023-12-20T01:33:58;2.57;;;1.97;;
5805;SDS011;2929;50.810;8.342;2023-12-20T01:36:25;4.10;;;2.63;;
5805;SDS011;2929;50.810;8.342;2023-12-20T01:38:52;3.27;;;2.20;;
5805;SDS011;2929;50.810;8.342;2023-12-20T01:41:19;2.20;;;2.00;;
5805;SDS011;2929;50.810;8.342;2023-12-20T01:43:46;2.77;;;2.43;;
5805;SDS011;2929;50.810;8.342;2023-12-20T01:46:14;3.70;;;2.97;;
5805;SDS011;2929;50.810;8.342;2023-12-20T01:48:41;4.43;;;2.17;;
5805;SDS011;2929;50.810;8.342;2023-12-20T01:57:09;4.70;;;2.10;;
5805;SDS011;2929;50.810;8.342;2023-12-20T01:59:38;1.63;;;1.53;;
5805;SDS011;2929;50.810;8.342;2023-12-20T02:02:08;2.17;;;2.07;;
5805;SDS011;2929;50.810;8.342;2023-12-20T02:04:39;1.80;;;1.70;;
5805;SDS011;2929;50.810;8.342;2023-12-20T02:07:13;2.10;;;1.90;;
5805;SDS011;2929;50.810;8.342;2023-12-20T02:09:40;2.00;;;1.50;;
5805;SDS011;2929;50.810;8.342;2023-12-20T02:12:07;2.40;;;1.90;;
5805;SDS011;2929;50.810;8.342;2023-12-20T02:14:35;1.87;;;1.60;;
5805;SDS011;2929;50.810;8.342;2023-12-20T02:17:02;1.80;;;1.70;;
5805;SDS011;2929;50.810;8.342;2023-12-20T02:19:30;1.80;;;1.70;;
5805;SDS011;2929;50.810;8.342;2023-12-20T02:22:09;1.40;;;1.30;;
5805;SDS011;2929;50.810;8.342;2023-12-20T02:24:36;1.00;;;0.90;;
5805;SDS011;2929;50.810;8.342;2023-12-20T02:27:03;1.10;;;1.10;;
5805;SDS011;2929;50.810;8.342;2023-12-20T02:29:32;1.03;;;0.90;;
5805;SDS011;2929;50.810;8.342;2023-12-20T02:32:00;1.00;;;1.00;;
5805;SDS011;2929;50.810;8.342;2023-12-20T02:34:28;4.70;;;1.00;;
5805;SDS011;2929;50.810;8.342;2023-12-20T02:36:55;0.97;;;0.97;;
5805;SDS011;2929;50.810;8.342;2023-12-20T02:39:23;2.33;;;1.50;;
5805;SDS011;2929;50.810;8.342;2023-12-20T02:41:50;4.03;;;2.07;;
5805;SDS011;2929;50.810;8.342;2023-12-20T02:44:17;2.87;;;1.80;;
5805;SDS011;2929;50.810;8.342;2023-12-20T02:46:44;2.37;;;1.70;;
5805;SDS011;2929;50.810;8.342;2023-12-20T02:49:11;1.73;;;1.63;;
5805;SDS011;2929;50.810;8.342;2023-12-20T02:51:38;1.90;;;1.80;;
5805;SDS011;2929;50.810;8.342;2023-12-20T02:54:05;2.27;;;2.07;;
5805;SDS011;2929;50.810;8.342;2023-12-20T02:56:34;4.77;;;2.20;;
5805;SDS011;2929;50.810;8.342;2023-12-20T02:59:01;2.53;;;1.70;;
5805;SDS011;2929;50.810;8.342;2023-12-20T03:01:31;6.93;;;1.77;;
5805;SDS011;2929;50.810;8.342;2023-12-20T03:03:58;2.63;;;1.83;;
5805;SDS011;2929;50.810;8.342;2023-12-20T03:06:25;4.67;;;1.90;;
5805;SDS011;2929;50.810;8.342;2023-12-20T03:08:52;5.87;;;2.07;;
5805;SDS011;2929;50.810;8.342;2023-12-20T03:11:19;4.13;;;1.70;;
5805;SDS011;2929;50.810;8.342;2023-12-20T03:13:49;1.90;;;1.80;;
5805;SDS011;2929;50.810;8.342;2023-12-20T03:16:17;7.23;;;1.87;;
5805;SDS011;2929;50.810;8.342;2023-12-20T03:18:44;2.20;;;2.00;;
5805;SDS011;2929;50.810;8.342;2023-12-20T03:21:11;3.97;;;2.67;;
5805;SDS011;2929;50.810;8.342;2023-12-20T03:23:38;4.00;;;2.17;;
5805;SDS011;2929;50.810;8.342;2023-12-20T03:26:06;2.47;;;2.20;;
5805;SDS011;2929;50.810;8.342;2023-12-20T03:28:34;4.07;;;2.67;;
5805;SDS011;2929;50.810;8.342;2023-12-20T03:31:03;4.53;;;2.40;;
5805;SDS011;2929;50.810;8.342;2023-12-20T03:33:30;7.70;;;2.77;;
5805;SDS011;2929;50.810;8.342;2023-12-20T03:35:58;5.50;;;2.57;;
5805;SDS011;2929;50.810;8.342;2023-12-20T03:38:24;9.30;;;2.97;;
5805;SDS011;2929;50.810;8.342;2023-12-20T03:40:51;4.83;;;2.17;;
5805;SDS011;2929;50.810;8.342;2023-12-20T03:43:20;9.00;;;2.30;;
5805;SDS011;2929;50.810;8.342;2023-12-20T03:45:47;6.83;;;2.57;;
5805;SDS011;2929;50.810;8.342;2023-12-20T03:48:15;9.07;;;2.30;;
5805;SDS011;2929;50.810;8.342;2023-12-20T03:50:44;4.03;;;2.17;;
5805;SDS011;2929;50.810;8.342;2023-12-20T03:53:11;10.13;;;2.60;;
5805;SDS011;2929;50.810;8.342;2023-12-20T03:55:39;5.47;;;2.90;;
5805;SDS011;2929;50.810;8.342;2023-12-20T03:58:06;5.50;;;2.80;;
5805;SDS011;2929;50.810;8.342;2023-12-20T04:00:33;8.43;;;2.87;;
5805;SDS011;2929;50.810;8.342;2023-12-20T04:03:00;3.90;;;2.50;;
5805;SDS011;2929;50.810;8.342;2023-12-20T04:05:28;6.80;;;2.70;;
5805;SDS011;2929;50.810;8.342;2023-12-20T04:07:55;9.03;;;2.60;;
5805;SDS011;2929;50.810;8.342;2023-12-20T04:10:22;4.83;;;2.83;;
5805;SDS011;2929;50.810;8.342;2023-12-20T04:12:49;7.70;;;2.70;;
5805;SDS011;2929;50.810;8.342;2023-12-20T04:15:16;4.23;;;2.70;;
5805;SDS011;2929;50.810;8.342;2023-12-20T04:17:43;7.60;;;3.43;;
5805;SDS011;2929;50.810;8.342;2023-12-20T04:20:10;10.63;;;3.43;;
5805;SDS011;2929;50.810;8.342;2023-12-20T04:22:38;8.47;;;3.33;;
5805;SDS011;2929;50.810;8.342;2023-12-20T04:25:05;6.17;;;3.30;;
5805;SDS011;2929;50.810;8.342;2023-12-20T04:27:33;8.57;;;2.80;;
5805;SDS011;2929;50.810;8.342;2023-12-20T04:30:00;6.90;;;3.00;;
5805;SDS011;2929;50.810;8.342;2023-12-20T04:32:27;9.07;;;3.70;;
5805;SDS011;2929;50.810;8.342;2023-12-20T04:34:54;9.73;;;4.07;;
5805;SDS011;2929;50.810;8.342;2023-12-20T04:37:21;12.20;;;3.93;;
5805;SDS011;2929;50.810;8.342;2023-12-20T04:39:49;5.60;;;3.07;;
5805;SDS011;2929;50.810;8.342;2023-12-20T04:42:16;5.17;;;2.93;;
5805;SDS011;2929;50.810;8.342;2023-12-20T04:44:43;6.60;;;2.77;;
5805;SDS011;2929;50.810;8.342;2023-12-20T04:47:10;4.37;;;2.77;;
5805;SDS011;2929;50.810;8.342;2023-12-20T04:49:37;8.50;;;2.67;;
5805;SDS011;2929;50.810;8.342;2023-12-20T04:52:04;6.97;;;2.57;;
5805;SDS011;2929;50.810;8.342;2023-12-20T04:54:32;11.77;;;3.13;;
5805;SDS011;2929;50.810;8.342;2023-12-20T04:57:00;4.80;;;2.90;;
5805;SDS011;2929;50.810;8.342;2023-12-20T04:59:27;13.80;;;3.60;;
5805;SDS011;2929;50.810;8.342;2023-12-20T05:01:54;11.03;;;4.13;;
5805;SDS011;2929;50.810;8.342;2023-12-20T05:04:22;7.30;;;3.60;;
5805;SDS011;2929;50.810;8.342;2023-12-20T05:06:49;17.00;;;4.20;;
5805;SDS011;2929;50.810;8.342;2023-12-20T05:09:16;8.50;;;2.53;;
5805;SDS011;2929;50.810;8.342;2023-12-20T05:11:43;12.43;;;3.50;;
5805;SDS011;2929;50.810;8.342;2023-12-20T05:14:12;9.13;;;2.90;;
5805;SDS011;2929;50.810;8.342;2023-12-20T05:16:38;3.10;;;2.33;;
5805;SDS011;2929;50.810;8.342;2023-12-20T05:19:05;8.03;;;3.00;;
5805;SDS011;2929;50.810;8.342;2023-12-20T05:21:32;6.20;;;3.03;;
5805;SDS011;2929;50.810;8.342;2023-12-20T05:23:59;7.27;;;2.97;;
5805;SDS011;2929;50.810;8.342;2023-12-20T05:26:27;12.30;;;2.97;;
5805;SDS011;2929;50.810;8.342;2023-12-20T05:28:54;12.33;;;3.30;;
5805;SDS011;2929;50.810;8.342;2023-12-20T05:31:23;6.00;;;3.43;;
5805;SDS011;2929;50.810;8.342;2023-12-20T05:33:50;10.20;;;2.90;;
5805;SDS011;2929;50.810;8.342;2023-12-20T05:36:17;7.63;;;3.80;;
5805;SDS011;2929;50.810;8.342;2023-12-20T05:38:45;7.00;;;2.93;;
5805;SDS011;2929;50.810;8.342;2023-12-20T05:41:12;9.70;;;4.70;;
5805;SDS011;2929;50.810;8.342;2023-12-20T05:43:39;9.07;;;3.57;;
5805;SDS011;2929;50.810;8.342;2023-12-20T05:46:06;8.10;;;4.23;;
5805;SDS011;2929;50.810;8.342;2023-12-20T05:48:34;5.20;;;2.20;;
5805;SDS011;2929;50.810;8.342;2023-12-20T05:51:02;4.80;;;2.20;;
5805;SDS011;2929;50.810;8.342;2023-12-20T05:53:29;10.43;;;2.23;;
5805;SDS011;2929;50.810;8.342;2023-12-20T05:55:56;5.60;;;2.73;;
5805;SDS011;2929;50.810;8.342;2023-12-20T05:58:23;15.60;;;3.80;;
5805;SDS011;2929;50.810;8.342;2023-12-20T06:00:50;5.53;;;3.07;;
5805;SDS011;2929;50.810;8.342;2023-12-20T06:03:17;5.13;;;2.87;;
5805;SDS011;2929;50.810;8.342;2023-12-20T06:05:45;12.20;;;4.00;;
5805;SDS011;2929;50.810;8.342;2023-12-20T06:08:12;17.40;;;3.37;;
5805;SDS011;2929;50.810;8.342;2023-12-20T06:10:39;8.40;;;3.37;;
5805;SDS011;2929;50.810;8.342;2023-12-20T06:13:06;13.93;;;2.87;;
5805;SDS011;2929;50.810;8.342;2023-12-20T06:15:34;9.40;;;3.43;;
5805;SDS011;2929;50.810;8.342;2023-12-20T06:18:01;12.00;;;3.30;;
5805;SDS011;2929;50.810;8.342;2023-12-20T06:20:28;34.80;;;3.90;;
5805;SDS011;2929;50.810;8.342;2023-12-20T06:22:57;5.10;;;2.37;;
5805;SDS011;2929;50.810;8.342;2023-12-20T06:25:24;9.90;;;3.10;;
5805;SDS011;2929;50.810;8.342;2023-12-20T06:27:51;7.47;;;2.70;;
5805;SDS011;2929;50.810;8.342;2023-12-20T06:30:18;5.90;;;2.20;;
5805;SDS011;2929;50.810;8.342;2023-12-20T06:32:45;12.50;;;3.63;;
5805;SDS011;2929;50.810;8.342;2023-12-20T06:35:13;10.30;;;2.47;;
5805;SDS011;2929;50.810;8.342;2023-12-20T06:37:40;11.30;;;3.00;;
5805;SDS011;2929;50.810;8.342;2023-12-20T06:40:09;6.13;;;2.63;;
5805;SDS011;2929;50.810;8.342;2023-12-20T06:42:36;10.13;;;2.37;;
5805;SDS011;2929;50.810;8.342;2023-12-20T06:45:04;11.43;;;3.17;;
5805;SDS011;2929;50.810;8.342;2023-12-20T06:47:31;8.57;;;3.27;;
5805;SDS011;2929;50.810;8.342;2023-12-20T06:49:58;7.00;;;2.77;;
5805;SDS011;2929;50.810;8.342;2023-12-20T06:52:25;16.70;;;3.53;;
5805;SDS011;2929;50.810;8.342;2023-12-20T06:54:53;10.07;;;3.20;;
5805;SDS011;2929;50.810;8.342;2023-12-20T06:57:22;12.77;;;3.30;;
5805;SDS011;2929;50.810;8.342;2023-12-20T06:59:51;15.33;;;3.27;;
5805;SDS011;2929;50.810;8.342;2023-12-20T07:02:18;14.83;;;3.47;;
5805;SDS011;2929;50.810;8.342;2023-12-20T07:04:46;16.20;;;2.83;;
5805;SDS011;2929;50.810;8.342;2023-12-20T07:07:13;14.13;;;2.80;;
5805;SDS011;2929;50.810;8.342;2023-12-20T07:09:40;11.90;;;2.73;;
5805;SDS011;2929;50.810;8.342;2023-12-20T07:12:08;11.87;;;2.90;;
5805;SDS011;2929;50.810;8.342;2023-12-20T07:14:36;8.33;;;2.80;;
5805;SDS011;2929;50.810;8.342;2023-12-20T07:17:03;17.47;;;3.67;;
5805;SDS011;2929;50.810;8.342;2023-12-20T07:19:32;17.97;;;3.07;;
5805;SDS011;2929;50.810;8.342;2023-12-20T07:22:00;14.10;;;3.07;;
5805;SDS011;2929;50.810;8.342;2023-12-20T07:24:27;16.10;;;4.10;;
5805;SDS011;2929;50.810;8.342;2023-12-20T07:26:54;24.43;;;3.70;;
5805;SDS011;2929;50.810;8.342;2023-12-20T07:29:22;14.23;;;3.77;;
5805;SDS011;2929;50.810;8.342;2023-12-20T07:31:50;21.27;;;3.60;;
5805;SDS011;2929;50.810;8.342;2023-12-20T07:34:19;13.30;;;4.00;;
5805;SDS011;2929;50.810;8.342;2023-12-20T07:36:46;16.40;;;3.60;;
5805;SDS011;2929;50.810;8.342;2023-12-20T07:39:13;13.17;;;3.10;;
5805;SDS011;2929;50.810;8.342;2023-12-20T07:41:40;10.27;;;4.57;;
5805;SDS011;2929;50.810;8.342;2023-12-20T07:44:10;15.53;;;3.20;;
5805;SDS011;2929;50.810;8.342;2023-12-20T07:46:37;18.87;;;4.40;;
5805;SDS011;2929;50.810;8.342;2023-12-20T07:49:07;12.00;;;2.67;;
5805;SDS011;2929;50.810;8.342;2023-12-20T07:51:35;17.83;;;3.23;;
5805;SDS011;2929;50.810;8.342;2023-12-20T07:54:02;18.33;;;3.00;;
5805;SDS011;2929;50.810;8.342;2023-12-20T07:56:30;21.70;;;3.23;;
5805;SDS011;2929;50.810;8.342;2023-12-20T07:58:57;12.97;;;3.50;;
5805;SDS011;2929;50.810;8.342;2023-12-20T08:01:24;13.23;;;3.10;;
5805;SDS011;2929;50.810;8.342;2023-12-20T08:03:51;15.47;;;3.77;;
5805;SDS011;2929;50.810;8.342;2023-12-20T08:06:19;14.30;;;4.23;;
5805;SDS011;2929;50.810;8.342;2023-12-20T08:08:46;8.43;;;2.93;;
5805;SDS011;2929;50.810;8.342;2023-12-20T08:11:13;7.33;;;3.27;;
5805;SDS011;2929;50.810;8.342;2023-12-20T08:13:40;16.73;;;3.40;;
5805;SDS011;2929;50.810;8.342;2023-12-20T08:16:07;7.80;;;3.50;;
5805;SDS011;2929;50.810;8.342;2023-12-20T08:18:34;13.73;;;2.90;;
5805;SDS011;2929;50.810;8.342;2023-12-20T08:21:01;10.57;;;3.10;;
5805;SDS011;2929;50.810;8.342;2023-12-20T08:23:30;6.40;;;3.47;;
5805;SDS011;2929;50.810;8.342;2023-12-20T08:25:57;11.23;;;3.50;;
5805;SDS011;2929;50.810;8.342;2023-12-20T08:28:23;14.40;;;3.60;;
5805;SDS011;2929;50.810;8.342;2023-12-20T08:30:50;9.67;;;3.50;;
5805;SDS011;2929;50.810;8.342;2023-12-20T08:33:19;18.27;;;4.27;;
5805;SDS011;2929;50.810;8.342;2023-12-20T08:35:46;10.73;;;3.37;;
5805;SDS011;2929;50.810;8.342;2023-12-20T08:38:13;11.67;;;3.70;;
5805;SDS011;2929;50.810;8.342;2023-12-20T08:40:43;11.00;;;3.23;;
5805;SDS011;2929;50.810;8.342;2023-12-20T08:43:10;18.20;;;4.60;;
5805;SDS011;2929;50.810;8.342;2023-12-20T08:45:37;22.47;;;4.03;;
5805;SDS011;2929;50.810;8.342;2023-12-20T08:48:05;11.23;;;3.40;;
5805;SDS011;2929;50.810;8.342;2023-12-20T08:50:33;15.27;;;4.37;;
5805;SDS011;2929;50.810;8.342;2023-12-20T08:53:00;20.87;;;4.47;;
5805;SDS011;2929;50.810;8.342;2023-12-20T08:55:27;9.23;;;3.33;;
5805;SDS011;2929;50.810;8.342;2023-12-20T08:57:58;13.63;;;3.30;;
5805;SDS011;2929;50.810;8.342;2023-12-20T09:00:25;7.03;;;3.50;;
5805;SDS011;2929;50.810;8.342;2023-12-20T09:02:53;10.73;;;3.53;;
5805;SDS011;2929;50.810;8.342;2023-12-20T09:05:20;18.83;;;4.33;;
5805;SDS011;2929;50.810;8.342;2023-12-20T09:07:47;17.03;;;4.80;;
5805;SDS011;2929;50.810;8.342;2023-12-20T09:10:14;14.40;;;4.17;;
5805;SDS011;2929;50.810;8.342;2023-12-20T09:12:41;11.10;;;3.93;;
5805;SDS011;2929;50.810;8.342;2023-12-20T09:15:09;14.17;;;3.50;;
5805;SDS011;2929;50.810;8.342;2023-12-20T09:17:36;11.00;;;3.37;;
5805;SDS011;2929;50.810;8.342;2023-12-20T09:20:04;21.43;;;4.80;;
5805;SDS011;2929;50.810;8.342;2023-12-20T09:22:33;23.47;;;3.90;;
5805;SDS011;2929;50.810;8.342;2023-12-20T09:25:00;14.90;;;4.07;;
5805;SDS011;2929;50.810;8.342;2023-12-20T09:27:28;13.90;;;3.50;;
5805;SDS011;2929;50.810;8.342;2023-12-20T09:29:55;10.77;;;3.43;;
5805;SDS011;2929;50.810;8.342;2023-12-20T09:32:23;8.90;;;3.93;;
5805;SDS011;2929;50.810;8.342;2023-12-20T09:34:50;9.80;;;3.90;;
5805;SDS011;2929;50.810;8.342;2023-12-20T09:37:17;12.50;;;4.27;;
5805;SDS011;2929;50.810;8.342;2023-12-20T09:39:44;15.93;;;5.07;;
5805;SDS011;2929;50.810;8.342;2023-12-20T09:42:11;13.73;;;4.90;;
5805;SDS011;2929;50.810;8.342;2023-12-20T09:44:43;9.70;;;3.70;;
5805;SDS011;2929;50.810;8.342;2023-12-20T09:47:12;9.90;;;3.40;;
5805;SDS011;2929;50.810;8.342;2023-12-20T09:49:43;16.27;;;3.90;;
5805;SDS011;2929;50.810;8.342;2023-12-20T09:52:12;13.03;;;3.40;;
5805;SDS011;2929;50.810;8.342;2023-12-20T09:54:40;21.50;;;3.97;;
5805;SDS011;2929;50.810;8.342;2023-12-20T09:57:09;15.93;;;4.10;;
5805;SDS011;2929;50.810;8.342;2023-12-20T09:59:36;10.37;;;3.93;;
5805;SDS011;2929;50.810;8.342;2023-12-20T10:02:03;14.03;;;4.47;;
5805;SDS011;2929;50.810;8.342;2023-12-20T10:04:35;9.80;;;3.50;;
5805;SDS011;2929;50.810;8.342;2023-12-20T10:07:04;12.13;;;4.37;;
5805;SDS011;2929;50.810;8.342;2023-12-20T10:09:32;16.00;;;3.60;;
5805;SDS011;2929;50.810;8.342;2023-12-20T10:12:00;17.07;;;3.60;;
5805;SDS011;2929;50.810;8.342;2023-12-20T10:14:27;16.03;;;4.17;;
5805;SDS011;2929;50.810;8.342;2023-12-20T10:16:54;9.17;;;3.40;;
5805;SDS011;2929;50.810;8.342;2023-12-20T10:19:28;7.33;;;3.50;;
5805;SDS011;2929;50.810;8.342;2023-12-20T10:21:56;16.77;;;3.63;;
5805;SDS011;2929;50.810;8.342;2023-12-20T10:24:25;11.10;;;4.50;;
5805;SDS011;2929;50.810;8.342;2023-12-20T10:27:01;14.37;;;4.67;;
5805;SDS011;2929;50.810;8.342;2023-12-20T10:29:31;11.07;;;3.83;;
5805;SDS011;2929;50.810;8.342;2023-12-20T10:31:59;10.07;;;3.37;;
5805;SDS011;2929;50.810;8.342;2023-12-20T10:34:26;14.17;;;3.33;;
5805;SDS011;2929;50.810;8.342;2023-12-20T10:36:53;21.40;;;4.40;;
5805;SDS011;2929;50.810;8.342;2023-12-20T10:39:21;17.10;;;5.40;;
5805;SDS011;2929;50.810;8.342;2023-12-20T10:41:50;13.33;;;3.43;;
5805;SDS011;2929;50.810;8.342;2023-12-20T10:44:17;21.57;;;4.43;;
5805;SDS011;2929;50.810;8.342;2023-12-20T10:46:44;11.53;;;4.43;;
5805;SDS011;2929;50.810;8.342;2023-12-20T10:49:16;10.93;;;3.50;;
5805;SDS011;2929;50.810;8.342;2023-12-20T10:51:46;19.63;;;3.80;;
5805;SDS011;2929;50.810;8.342;2023-12-20T10:54:15;7.43;;;3.37;;
5805;SDS011;2929;50.810;8.342;2023-12-20T10:56:45;9.33;;;3.20;;
5805;SDS011;2929;50.810;8.342;2023-12-20T10:59:16;8.23;;;2.70;;
5805;SDS011;2929;50.810;8.342;2023-12-20T11:02:04;6.80;;;3.00;;
5805;SDS011;2929;50.810;8.342;2023-12-20T11:04:35;17.37;;;3.70;;
5805;SDS011;2929;50.810;8.342;2023-12-20T11:07:10;8.10;;;3.20;;
5805;SDS011;2929;50.810;8.342;2023-12-20T11:09:47;10.30;;;3.27;;
5805;SDS011;2929;50.810;8.342;2023-12-20T11:12:23;16.53;;;3.10;;
5805;SDS011;2929;50.810;8.342;2023-12-20T11:14:58;13.43;;;3.00;;
5805;SDS011;2929;50.810;8.342;2023-12-20T11:17:29;10.53;;;3.47;;
5805;SDS011;2929;50.810;8.342;2023-12-20T11:20:05;10.33;;;3.47;;
5805;SDS011;2929;50.810;8.342;2023-12-20T11:22:38;7.63;;;3.13;;
5805;SDS011;2929;50.810;8.342;2023-12-20T11:25:18;9.90;;;3.60;;
5805;SDS011;2929;50.810;8.342;2023-12-20T11:27:46;11.53;;;3.70;;
5805;SDS011;2929;50.810;8.342;2023-12-20T11:30:46;12.10;;;2.73;;
5805;SDS011;2929;50.810;8.342;2023-12-20T11:33:15;9.97;;;3.27;;
5805;SDS011;2929;50.810;8.342;2023-12-20T11:35:43;10.67;;;3.17;;
5805;SDS011;2929;50.810;8.342;2023-12-20T11:38:13;11.03;;;2.80;;
5805;SDS011;2929;50.810;8.342;2023-12-20T11:40:41;13.43;;;3.40;;
5805;SDS011;2929;50.810;8.342;2023-12-20T11:43:09;13.87;;;3.00;;
5805;SDS011;2929;50.810;8.342;2023-12-20T11:45:37;9.50;;;2.30;;
5805;SDS011;2929;50.810;8.342;2023-12-20T11:48:04;8.60;;;3.30;;
5805;SDS011;2929;50.810;8.342;2023-12-20T11:50:33;5.47;;;2.07;;
5805;SDS011;2929;50.810;8.342;2023-12-20T11:53:00;7.70;;;2.73;;
5805;SDS011;2929;50.810;8.342;2023-12-20T11:55:27;8.77;;;2.73;;
5805;SDS011;2929;50.810;8.342;2023-12-20T11:57:54;20.87;;;2.77;;
5805;SDS011;2929;50.810;8.342;2023-12-20T12:00:24;7.07;;;2.93;;
5805;SDS011;2929;50.810;8.342;2023-12-20T12:02:55;5.50;;;2.27;;
5805;SDS011;2929;50.810;8.342;2023-12-20T12:05:22;7.00;;;2.60;;
5805;SDS011;2929;50.810;8.342;2023-12-20T12:07:49;4.40;;;2.20;;
5805;SDS011;2929;50.810;8.342;2023-12-20T12:10:16;12.00;;;2.27;;
5805;SDS011;2929;50.810;8.342;2023-12-20T12:12:43;19.23;;;3.57;;
5805;SDS011;2929;50.810;8.342;2023-12-20T12:15:11;5.60;;;2.00;;
5805;SDS011;2929;50.810;8.342;2023-12-20T12:17:40;7.00;;;2.60;;
5805;SDS011;2929;50.810;8.342;2023-12-20T12:20:07;15.43;;;3.30;;
5805;SDS011;2929;50.810;8.342;2023-12-20T12:25:17;5.03;;;2.30;;
5805;SDS011;2929;50.810;8.342;2023-12-20T12:27:44;5.50;;;2.60;;
5805;SDS011;2929;50.810;8.342;2023-12-20T12:30:11;10.13;;;2.67;;
5805;SDS011;2929;50.810;8.342;2023-12-20T12:32:40;5.70;;;2.23;;
5805;SDS011;2929;50.810;8.342;2023-12-20T12:35:07;10.40;;;2.13;;
5805;SDS011;2929;50.810;8.342;2023-12-20T12:37:35;11.13;;;3.10;;
5805;SDS011;2929;50.810;8.342;2023-12-20T12:40:04;12.23;;;2.97;;
5805;SDS011;2929;50.810;8.342;2023-12-20T12:42:33;18.13;;;2.50;;
5805;SDS011;2929;50.810;8.342;2023-12-20T12:45:01;11.57;;;2.37;;
5805;SDS011;2929;50.810;8.342;2023-12-20T12:47:29;12.50;;;2.77;;
5805;SDS011;2929;50.810;8.342;2023-12-20T12:49:58;14.13;;;3.20;;
5805;SDS011;2929;50.810;8.342;2023-12-20T12:52:25;10.07;;;2.57;;
5805;SDS011;2929;50.810;8.342;2023-12-20T12:54:53;8.20;;;2.33;;
5805;SDS011;2929;50.810;8.342;2023-12-20T12:57:20;12.13;;;2.50;;
5805;SDS011;2929;50.810;8.342;2023-12-20T12:59:47;5.50;;;2.40;;
5805;SDS011;2929;50.810;8.342;2023-12-20T13:02:14;9.57;;;2.70;;
5805;SDS011;2929;50.810;8.342;2023-12-20T13:04:42;12.13;;;2.90;;
5805;SDS011;2929;50.810;8.342;2023-12-20T13:07:10;6.93;;;2.67;;
5805;SDS011;2929;50.810;8.342;2023-12-20T13:09:39;14.90;;;3.30;;
5805;SDS011;2929;50.810;8.342;2023-12-20T13:12:06;12.13;;;3.60;;
5805;SDS011;2929;50.810;8.342;2023-12-20T13:14:34;7.93;;;3.90;;
5805;SDS011;2929;50.810;8.342;2023-12-20T13:17:02;18.87;;;4.67;;
5805;SDS011;2929;50.810;8.342;2023-12-20T13:19:30;13.77;;;4.23;;
5805;SDS011;2929;50.810;8.342;2023-12-20T13:21:57;8.57;;;3.67;;
5805;SDS011;2929;50.810;8.342;2023-12-20T13:24:26;10.60;;;3.60;;
5805;SDS011;2929;50.810;8.342;2023-12-20T13:26:53;9.43;;;3.30;;
5805;SDS011;2929;50.810;8.342;2023-12-20T13:29:20;10.57;;;3.40;;
5805;SDS011;2929;50.810;8.342;2023-12-20T13:31:47;10.93;;;3.80;;
5805;SDS011;2929;50.810;8.342;2023-12-20T13:34:16;11.37;;;2.87;;
5805;SDS011;2929;50.810;8.342;2023-12-20T13:36:43;6.60;;;3.47;;
5805;SDS011;2929;50.810;8.342;2023-12-20T13:39:12;7.60;;;2.70;;
5805;SDS011;2929;50.810;8.342;2023-12-20T13:41:42;11.83;;;2.57;;
5805;SDS011;2929;50.810;8.342;2023-12-20T13:44:10;6.60;;;3.03;;
5805;SDS011;2929;50.810;8.342;2023-12-20T13:46:38;13.83;;;3.07;;
5805;SDS011;2929;50.810;8.342;2023-12-20T13:49:06;7.93;;;2.43;;
5805;SDS011;2929;50.810;8.342;2023-12-20T13:51:33;4.67;;;2.50;;
5805;SDS011;2929;50.810;8.342;2023-12-20T13:54:00;5.57;;;2.30;;
5805;SDS011;2929;50.810;8.342;2023-12-20T13:56:27;10.60;;;2.80;;
5805;SDS011;2929;50.810;8.342;2023-12-20T13:58:56;4.07;;;2.50;;
5805;SDS011;2929;50.810;8.342;2023-12-20T14:01:23;3.27;;;1.80;;
5805;SDS011;2929;50.810;8.342;2023-12-20T14:03:51;6.93;;;2.07;;
5805;SDS011;2929;50.810;8.342;2023-12-20T14:06:19;8.13;;;2.40;;
5805;SDS011;2929;50.810;8.342;2023-12-20T14:08:47;5.50;;;2.20;;
5805;SDS011;2929;50.810;8.342;2023-12-20T14:11:14;7.27;;;2.60;;
5805;SDS011;2929;50.810;8.342;2023-12-20T14:13:41;5.93;;;2.10;;
5805;SDS011;2929;50.810;8.342;2023-12-20T14:16:10;5.50;;;2.00;;
5805;SDS011;2929;50.810;8.342;2023-12-20T14:21:15;2.63;;;1.60;;
5805;SDS011;2929;50.810;8.342;2023-12-20T14:23:46;4.77;;;1.50;;
5805;SDS011;2929;50.810;8.342;2023-12-20T14:26:18;3.57;;;1.97;;
5805;SDS011;2929;50.810;8.342;2023-12-20T14:28:45;3.17;;;1.70;;
5805;SDS011;2929;50.810;8.342;2023-12-20T14:31:14;1.90;;;1.47;;
5805;SDS011;2929;50.810;8.342;2023-12-20T14:33:41;6.30;;;1.80;;
5805;SDS011;2929;50.810;8.342;2023-12-20T14:36:08;6.97;;;2.00;;
5805;SDS011;2929;50.810;8.342;2023-12-20T14:38:35;3.17;;;2.33;;
5805;SDS011;2929;50.810;8.342;2023-12-20T14:41:02;5.87;;;2.30;;
5805;SDS011;2929;50.810;8.342;2023-12-20T14:43:33;4.90;;;2.00;;
5805;SDS011;2929;50.810;8.342;2023-12-20T14:46:00;6.33;;;2.43;;
5805;SDS011;2929;50.810;8.342;2023-12-20T14:48:29;4.40;;;2.77;;
5805;SDS011;2929;50.810;8.342;2023-12-20T14:50:57;3.00;;;2.20;;
5805;SDS011;2929;50.810;8.342;2023-12-20T14:53:25;5.17;;;2.83;;
5805;SDS011;2929;50.810;8.342;2023-12-20T14:55:52;8.33;;;3.17;;
5805;SDS011;2929;50.810;8.342;2023-12-20T14:58:19;8.40;;;2.60;;
5805;SDS011;2929;50.810;8.342;2023-12-20T15:00:49;3.90;;;2.77;;
5805;SDS011;2929;50.810;8.342;2023-12-20T15:03:16;10.97;;;2.60;;
5805;SDS011;2929;50.810;8.342;2023-12-20T15:05:45;6.43;;;3.10;;
5805;SDS011;2929;50.810;8.342;2023-12-20T15:08:13;6.57;;;2.20;;
5805;SDS011;2929;50.810;8.342;2023-12-20T15:10:40;11.97;;;2.60;;
5805;SDS011;2929;50.810;8.342;2023-12-20T15:13:07;3.47;;;2.10;;
5805;SDS011;2929;50.810;8.342;2023-12-20T15:15:34;8.60;;;2.10;;
5805;SDS011;2929;50.810;8.342;2023-12-20T15:18:01;10.20;;;2.60;;
5805;SDS011;2929;50.810;8.342;2023-12-20T15:20:29;6.07;;;2.20;;
5805;SDS011;2929;50.810;8.342;2023-12-20T15:23:00;4.60;;;1.90;;
5805;SDS011;2929;50.810;8.342;2023-12-20T15:25:32;4.10;;;2.33;;